This is the latest recevied weather packets stored in our database for station/object N8QQQ. If no packets are shown the sender has not sent any weather packets the latest 10 day(s).
| Time | Temp. | Humidity | Pressure | Rain* | Wind** | Luminosity | Snow |
|---|---|---|---|---|---|---|---|
| 1777502415 | 1.67° C | 96% | 1014.9 hPa | 0 mm | - | 14 W/m² | - |
| 1777502112 | 1.67° C | 95% | 1015 hPa | 0 mm | - | 13 W/m² | - |
| 1777501810 | 2.22° C | 94% | 1015 hPa | 0 mm | - | 12 W/m² | - |
| 1777501506 | 2.78° C | 92% | 1015 hPa | 0 mm | - | 14 W/m² | - |
| 1777501203 | 3.33° C | 89% | 1014.7 hPa | 0 mm | - | 16 W/m² | - |
| 1777500901 | 4.44° C | 81% | 1014.8 hPa | 0 mm | - | 13 W/m² | - |
| 1777500598 | 5° C | 74% | 1014.7 hPa | 0 mm | - | 19 W/m² | - |
| 1777500294 | 5.56° C | 74% | 1014.3 hPa | 0 mm | - | 25 W/m² | - |
| 1777499991 | 5.56° C | 72% | 1014.1 hPa | 0 mm | - | 29 W/m² | - |
| 1777499688 | 5.56° C | 71% | 1014.1 hPa | 0 mm | - | 32 W/m² | - |
| 1777499384 | 5.56° C | 71% | 1013.8 hPa | 0 mm | - | 29 W/m² | - |
| 1777499084 | 5° C | 72% | 1014 hPa | 0 mm | - | 24 W/m² | - |
| 1777498779 | 5.56° C | 70% | 1014 hPa | 0 mm | - | 23 W/m² | - |
| 1777498476 | 5.56° C | 73% | 1013.9 hPa | 0 mm | - | 31 W/m² | - |
| 1777498172 | 5° C | 74% | 1013.7 hPa | 0 mm | - | 41 W/m² | - |
| 1777497870 | 5° C | 75% | 1013.9 hPa | 0 mm | - | 36 W/m² | - |
| 1777497566 | 5° C | 74% | 1013.9 hPa | 0 mm | - | 35 W/m² | - |
| 1777497262 | 5° C | 74% | 1013.8 hPa | 0 mm | - | 31 W/m² | - |
| 1777496959 | 5° C | 72% | 1013.7 hPa | 0 mm | - | 38 W/m² | - |
| 1777496656 | 5.56° C | 72% | 1013.7 hPa | 0 mm | - | 32 W/m² | - |
| 1777496352 | 5.56° C | 71% | 1013.7 hPa | 0 mm | - | 27 W/m² | - |
| 1777496048 | 5.56° C | 70% | 1013.6 hPa | 0 mm | - | 27 W/m² | - |
| 1777495744 | 6.11° C | 70% | 1013.6 hPa | 0 mm | - | 38 W/m² | - |
| 1777495440 | 6.11° C | 69% | 1013.4 hPa | 0 mm | - | 43 W/m² | - |
| 1777495131 | 6.11° C | 66% | 1013.7 hPa | 0 mm | - | 36 W/m² | - |
* Rain latest hour (hover to see other rain measurements)
** Current wind speed in m/s (hover to see current wind gust speed)